Time;durP1;ratioP1;P1;durP2;ratioP2;P2;SDS_P1;SDS_P2;PMS_P1;PMS_P2;Temp;Humidity;BMP_temperature;BMP_pressure;BME280_temperature;BME280_humidity;BME280_pressure;Samples;Min_cycle;Max_cycle;Signal;HPM_P1;HPM_P2
2024/02/21 00:01:55;;;;;;;;;;;;;;;22.74;32.90;102168.59;4134251;28;20346;-67
2024/02/21 00:03:57;;;;;;;;;;;;;;;22.74;32.95;102161.38;4116722;28;20009;-69
2024/02/21 00:05:59;;;;;;;;;;;;;;;22.76;33.05;102153.22;4134124;28;19961;-66
2024/02/21 00:08:00;;;;;;;;;;;;;;;22.73;33.03;102146.25;4134043;28;19972;-67
2024/02/21 00:10:03;;;;;;;;;;;;;;;22.73;33.09;102151.59;4134154;28;20013;-66
2024/02/21 00:12:05;;;;;;;;;;;;;;;22.74;32.81;102153.34;4133850;28;20009;-66
2024/02/21 00:14:07;;;;;;;;;;;;;;;22.75;32.82;102154.22;4133991;28;20005;-66
2024/02/21 00:16:08;;;;;;;;;;;;;;;22.74;32.78;102158.69;4116311;28;19934;-67
2024/02/21 00:18:10;;;;;;;;;;;;;;;22.73;33.16;102143.56;4133922;28;20020;-66
2024/02/21 00:20:13;;;;;;;;;;;;;;;22.75;33.13;102138.97;4133765;28;20355;-66
2024/02/21 00:22:15;;;;;;;;;;;;;;;22.77;32.84;102142.44;4133862;28;20350;-67
2024/02/21 00:24:16;;;;;;;;;;;;;;;22.78;33.06;102145.94;4133672;28;19933;-66
2024/02/21 00:26:18;;;;;;;;;;;;;;;22.78;32.77;102145.94;4133974;28;20049;-67
2024/02/21 00:28:19;;;;;;;;;;;;;;;22.78;32.80;102133.41;4133610;28;19932;-67
2024/02/21 00:30:21;;;;;;;;;;;;;;;22.78;33.09;102138.78;4132807;28;20403;-66
2024/02/21 00:32:23;;;;;;;;;;;;;;;22.78;32.78;102132.53;4133741;28;19926;-66
2024/02/21 00:34:24;;;;;;;;;;;;;;;22.78;33.07;102125.38;4133219;28;19976;-66
2024/02/21 00:36:26;;;;;;;;;;;;;;;22.78;32.76;102125.38;4133466;28;20013;-66
2024/02/21 00:38:28;;;;;;;;;;;;;;;22.78;32.85;102122.69;4133427;28;19926;-66
2024/02/21 00:40:29;;;;;;;;;;;;;;;22.78;33.16;102125.38;4116334;28;20016;-66
2024/02/21 00:42:31;;;;;;;;;;;;;;;22.78;33.09;102111.09;4133633;28;20020;-66
2024/02/21 00:44:32;;;;;;;;;;;;;;;22.78;33.00;102105.72;4133629;28;19932;-66
2024/02/21 00:46:38;;;;;;;;;;;;;;;22.78;33.12;102109.28;4133334;28;19965;-66
2024/02/21 00:48:40;;;;;;;;;;;;;;;22.78;32.89;102101.22;4133142;28;19964;-66
2024/02/21 00:50:42;;;;;;;;;;;;;;;22.80;32.96;102098.44;4133275;28;20016;-67
2024/02/21 00:52:44;;;;;;;;;;;;;;;22.81;33.17;102084.06;4133299;28;20303;-66
2024/02/21 00:54:46;;;;;;;;;;;;;;;22.81;33.12;102086.75;4133192;28;19926;-68
2024/02/21 00:56:54;;;;;;;;;;;;;;;22.81;33.17;102090.28;4133343;28;19981;-66
2024/02/21 00:58:56;;;;;;;;;;;;;;;22.79;32.96;102086.84;4133314;28;19980;-66
2024/02/21 01:01:01;;;;;;;;;;;;;;;22.81;33.12;102073.34;4133174;28;19933;-66
2024/02/21 01:03:03;;;;;;;;;;;;;;;22.80;33.11;102072.47;4132887;28;19957;-66
2024/02/21 01:05:05;;;;;;;;;;;;;;;22.81;33.17;102073.34;4132978;28;20429;-66
2024/02/21 01:07:06;;;;;;;;;;;;;;;22.80;33.01;102064.41;4133181;28;19973;-66
2024/02/21 01:09:07;;;;;;;;;;;;;;;22.80;32.88;102060.88;4132979;28;20428;-66
2024/02/21 01:11:09;;;;;;;;;;;;;;;22.79;33.26;102060.00;4115590;28;19930;-66
2024/02/21 01:13:11;;;;;;;;;;;;;;;22.80;32.89;102063.56;4132969;28;19929;-67
2024/02/21 01:15:13;;;;;;;;;;;;;;;22.80;33.02;102051.00;4132995;28;19926;-66
2024/02/21 01:17:15;;;;;;;;;;;;;;;22.80;33.00;102037.59;4132669;28;19926;-66
2024/02/21 01:19:16;;;;;;;;;;;;;;;22.80;33.03;102048.31;4132881;28;20022;-66
2024/02/21 01:21:18;;;;;;;;;;;;;;;22.82;32.87;102056.28;4132987;28;19972;-66
2024/02/21 01:23:20;;;;;;;;;;;;;;;22.83;33.19;102049.09;4132722;28;19934;-66
2024/02/21 01:25:21;;;;;;;;;;;;;;;22.83;33.12;102023.13;4133063;28;19932;-65
2024/02/21 01:27:22;;;;;;;;;;;;;;;22.84;33.02;102030.22;4132890;28;19930;-66
2024/02/21 01:29:24;;;;;;;;;;;;;;;22.84;33.16;102040.94;4132901;28;19925;-66
2024/02/21 01:31:26;;;;;;;;;;;;;;;22.85;33.14;102049.88;4132585;28;19925;-66
2024/02/21 01:33:27;;;;;;;;;;;;;;;22.84;32.92;102054.34;4132583;28;20004;-65
2024/02/21 01:35:29;;;;;;;;;;;;;;;22.84;33.13;102040.09;4132735;28;19936;-66
2024/02/21 01:37:30;;;;;;;;;;;;;;;22.84;32.76;102040.94;4132683;28;20029;-66
2024/02/21 01:39:32;;;;;;;;;;;;;;;22.84;33.33;102038.25;4115121;28;19933;-67
2024/02/21 01:41:34;;;;;;;;;;;;;;;22.83;32.98;102024.97;4115386;28;19926;-66
2024/02/21 01:43:35;;;;;;;;;;;;;;;22.83;32.83;102028.47;4132518;28;19930;-66
2024/02/21 01:45:37;;;;;;;;;;;;;;;22.84;33.25;102027.53;4132279;28;20321;-67
2024/02/21 01:47:38;;;;;;;;;;;;;;;22.85;32.93;102037.28;4132686;28;19932;-67
2024/02/21 01:49:40;;;;;;;;;;;;;;;22.85;33.18;102041.81;4132406;28;19930;-67
2024/02/21 01:51:42;;;;;;;;;;;;;;;22.85;32.97;102031.94;4132563;28;20383;-66
2024/02/21 01:53:45;;;;;;;;;;;;;;;22.86;33.23;102011.34;4132379;28;19965;-66
2024/02/21 01:55:47;;;;;;;;;;;;;;;22.84;32.98;102003.38;4132513;28;19974;-65
2024/02/21 01:57:48;;;;;;;;;;;;;;;22.86;33.16;102011.34;4132300;28;19933;-67
2024/02/21 01:59:50;;;;;;;;;;;;;;;22.86;32.94;102004.16;4115142;28;20403;-66
2024/02/21 02:01:52;;;;;;;;;;;;;;;22.86;33.23;102000.63;4132054;28;19992;-67
2024/02/21 02:03:54;;;;;;;;;;;;;;;22.86;33.15;101992.56;4132183;28;20450;-67
2024/02/21 02:05:56;;;;;;;;;;;;;;;22.84;33.17;101984.59;4132350;28;19949;-67
2024/02/21 02:07:57;;;;;;;;;;;;;;;22.84;33.23;101964.97;4132097;28;19926;-66
2024/02/21 02:09:59;;;;;;;;;;;;;;;22.83;32.93;101964.09;4132164;28;20311;-67
2024/02/21 02:12:01;;;;;;;;;;;;;;;22.83;33.37;101969.47;4131917;28;20016;-66
2024/02/21 02:14:03;;;;;;;;;;;;;;;22.83;33.29;101961.41;4131962;28;19926;-66
2024/02/21 02:16:05;;;;;;;;;;;;;;;22.84;33.24;101970.34;4132137;28;20347;-67
2024/02/21 02:18:06;;;;;;;;;;;;;;;22.85;33.10;101964.03;4131890;28;20387;-66
2024/02/21 02:20:08;;;;;;;;;;;;;;;22.85;33.01;101970.25;4131873;28;19932;-67
2024/02/21 02:22:14;;;;;;;;;;;;;;;22.86;33.19;101973.78;4132050;28;20411;-66
2024/02/21 02:24:15;;;;;;;;;;;;;;;22.85;33.17;101967.56;4131904;28;20359;-65
2024/02/21 02:26:17;;;;;;;;;;;;;;;22.85;33.19;101955.97;4132078;28;19932;-66
2024/02/21 02:28:20;;;;;;;;;;;;;;;22.86;33.07;101942.47;4131842;28;19997;-66
2024/02/21 02:30:21;;;;;;;;;;;;;;;22.85;33.19;101956.81;4114505;28;20371;-66
2024/02/21 02:32:23;;;;;;;;;;;;;;;22.84;32.91;101952.41;4131893;28;19960;-66
2024/02/21 02:34:25;;;;;;;;;;;;;;;22.85;32.95;101953.28;4131578;28;19925;-66
2024/02/21 02:36:26;;;;;;;;;;;;;;;22.83;33.21;101953.38;4131971;28;19926;-67
2024/02/21 02:38:28;;;;;;;;;;;;;;;22.84;33.21;101959.63;4114507;28;20013;-67
2024/02/21 02:40:30;;;;;;;;;;;;;;;22.83;33.20;101952.53;4131885;28;19954;-66
2024/02/21 02:42:31;;;;;;;;;;;;;;;22.82;33.23;101949.00;4131794;28;19932;-66
2024/02/21 02:44:33;;;;;;;;;;;;;;;22.83;32.88;101937.28;4131732;28;19932;-66
2024/02/21 02:46:34;;;;;;;;;;;;;;;22.84;33.05;101927.44;4131880;28;19968;-67
2024/02/21 02:48:38;;;;;;;;;;;;;;;22.73;33.17;101904.03;4131824;28;20007;-67
2024/02/21 02:50:40;;;;;;;;;;;;;;;22.85;33.23;101926.47;4131906;28;19953;-67
2024/02/21 02:52:41;;;;;;;;;;;;;;;22.85;32.92;101923.78;4131325;28;19981;-66
2024/02/21 02:54:43;;;;;;;;;;;;;;;22.86;32.98;101921.00;4131816;28;19965;-67
2024/02/21 02:56:45;;;;;;;;;;;;;;;22.86;33.19;101909.41;4131772;28;19925;-66
2024/02/21 02:58:47;;;;;;;;;;;;;;;22.87;33.00;101908.44;4131264;28;19934;-67
2024/02/21 03:00:48;;;;;;;;;;;;;;;22.85;32.92;101902.34;4131561;28;20084;-66
2024/02/21 03:02:50;;;;;;;;;;;;;;;22.85;33.25;101902.34;4131785;28;19933;-66
2024/02/21 03:04:52;;;;;;;;;;;;;;;22.85;33.20;101894.28;4131457;28;19956;-67
2024/02/21 03:06:54;;;;;;;;;;;;;;;22.83;33.27;101888.16;4131429;28;19926;-66
2024/02/21 03:08:56;;;;;;;;;;;;;;;22.84;33.10;101877.31;4131639;28;19926;-65
2024/02/21 03:10:58;;;;;;;;;;;;;;;22.84;32.98;101868.41;4131626;28;19926;-65
2024/02/21 03:13:00;;;;;;;;;;;;;;;22.84;33.13;101869.28;4131199;28;19930;-65
2024/02/21 03:15:03;;;;;;;;;;;;;;;22.85;33.14;101865.63;4131607;28;19926;-65
2024/02/21 03:17:05;;;;;;;;;;;;;;;22.86;32.98;101864.66;4131649;28;20387;-65
2024/02/21 03:19:07;;;;;;;;;;;;;;;22.88;33.05;101861.88;4131417;28;20430;-65
2024/02/21 03:21:09;;;;;;;;;;;;;;;22.87;33.00;101849.41;4131321;28;19932;-64
2024/02/21 03:23:10;;;;;;;;;;;;;;;22.86;33.05;101842.38;4114168;28;20033;-65
2024/02/21 03:25:13;;;;;;;;;;;;;;;22.86;33.09;101845.88;4131360;28;19934;-65
2024/02/21 03:27:15;;;;;;;;;;;;;;;22.86;33.35;101843.19;4131125;28;19930;-65
2024/02/21 03:29:17;;;;;;;;;;;;;;;22.86;33.24;101845.03;4131346;28;19926;-65
2024/02/21 03:31:19;;;;;;;;;;;;;;;22.86;33.00;101839.69;4131354;28;19929;-65
2024/02/21 03:33:22;;;;;;;;;;;;;;;22.86;33.09;101831.63;4131397;28;20020;-64
2024/02/21 03:35:26;;;;;;;;;;;;;;;22.84;33.30;101829.03;4131260;28;19948;-65
2024/02/21 03:37:27;;;;;;;;;;;;;;;22.83;33.26;101824.63;4131362;28;19933;-64
2024/02/21 03:39:32;;;;;;;;;;;;;;;22.83;33.08;101818.41;4131173;28;20305;-65
2024/02/21 03:41:34;;;;;;;;;;;;;;;22.83;33.13;101811.22;4131203;28;19925;-65
2024/02/21 03:43:39;;;;;;;;;;;;;;;22.85;33.23;101821.88;4131405;28;20378;-66
2024/02/21 03:45:40;;;;;;;;;;;;;;;22.85;33.20;101838.81;4131286;28;19934;-66
2024/02/21 03:47:43;;;;;;;;;;;;;;;22.86;33.15;101842.38;4131326;28;19925;-66
2024/02/21 03:49:44;;;;;;;;;;;;;;;22.86;33.00;101842.38;4113805;28;19930;-65
2024/02/21 03:51:46;;;;;;;;;;;;;;;22.86;32.78;101835.16;4131233;28;19957;-66
2024/02/21 03:53:47;;;;;;;;;;;;;;;22.87;33.22;101827.97;4131374;28;20024;-65
2024/02/21 03:55:49;;;;;;;;;;;;;;;22.86;33.26;101832.47;4131283;28;20384;-66
2024/02/21 03:57:51;;;;;;;;;;;;;;;22.86;33.04;101834.31;4130848;28;20426;-66
2024/02/21 03:59:52;;;;;;;;;;;;;;;22.84;32.94;101837.09;4131194;28;19936;-65
2024/02/21 04:01:54;;;;;;;;;;;;;;;22.86;33.26;101837.00;4131259;28;19957;-65
2024/02/21 04:03:56;;;;;;;;;;;;;;;22.86;33.29;101823.59;4131071;28;19929;-65
2024/02/21 04:05:57;;;;;;;;;;;;;;;22.85;33.18;101830.75;4133006;28;20021;-66
2024/02/21 04:07:59;;;;;;;;;;;;;;;22.84;33.24;101814.78;4134032;28;20419;-66
2024/02/21 04:10:00;;;;;;;;;;;;;;;22.84;33.19;101814.78;4133746;28;20400;-65
2024/02/21 04:12:02;;;;;;;;;;;;;;;22.85;33.22;101824.53;4133655;28;19925;-65
2024/02/21 04:14:04;;;;;;;;;;;;;;;22.84;33.21;101820.16;4116606;28;19926;-65
2024/02/21 04:16:06;;;;;;;;;;;;;;;22.86;33.06;101818.22;4133983;28;19930;-66
2024/02/21 04:18:07;;;;;;;;;;;;;;;22.87;33.05;101825.28;4133874;28;20387;-65
2024/02/21 04:20:14;;;;;;;;;;;;;;;22.86;33.19;101805.66;4134067;28;20380;-65
2024/02/21 04:22:15;;;;;;;;;;;;;;;22.86;33.15;101800.28;4116714;28;19926;-65
2024/02/21 04:24:17;;;;;;;;;;;;;;;22.87;33.00;101796.66;4133706;28;19976;-65
2024/02/21 04:26:19;;;;;;;;;;;;;;;22.87;33.24;101785.03;4133469;28;19932;-66
2024/02/21 04:28:20;;;;;;;;;;;;;;;22.87;33.13;101785.03;4133942;28;19968;-66
2024/02/21 04:30:22;;;;;;;;;;;;;;;22.86;32.92;101792.25;4133874;28;19926;-65
2024/02/21 04:32:24;;;;;;;;;;;;;;;22.86;33.16;101799.44;4133360;28;19925;-65
2024/02/21 04:34:26;;;;;;;;;;;;;;;22.86;33.13;101807.50;4133698;28;19965;-65
2024/02/21 04:36:28;;;;;;;;;;;;;;;22.85;33.23;101808.44;4133699;28;19925;-65
2024/02/21 04:38:30;;;;;;;;;;;;;;;22.85;33.20;101795.88;4116403;28;20802;-65
2024/02/21 04:40:32;;;;;;;;;;;;;;;22.85;33.26;101781.63;4133357;28;20038;-66
2024/02/21 04:42:33;;;;;;;;;;;;;;;22.85;33.23;101758.34;4133596;28;19925;-65
2024/02/21 04:44:35;;;;;;;;;;;;;;;22.85;33.18;101755.66;4133504;28;19926;-65
2024/02/21 04:46:36;;;;;;;;;;;;;;;22.86;33.17;101767.25;4133560;28;20365;-65
2024/02/21 04:48:38;;;;;;;;;;;;;;;22.88;32.75;101792.13;4116223;28;19926;-65
2024/02/21 04:50:41;;;;;;;;;;;;;;;22.87;33.22;101782.34;4133762;28;19926;-65
2024/02/21 04:52:43;;;;;;;;;;;;;;;22.87;33.01;101763.56;4133332;28;19932;-66
2024/02/21 04:54:45;;;;;;;;;;;;;;;22.88;32.88;101776.03;4133158;28;20409;-65
2024/02/21 04:56:46;;;;;;;;;;;;;;;22.87;33.19;101788.59;4133423;28;19926;-65
2024/02/21 04:58:51;;;;;;;;;;;;;;;22.87;33.11;101785.03;4133024;28;19929;-65
2024/02/21 05:00:54;;;;;;;;;;;;;;;22.87;33.12;101771.63;4133323;28;19926;-66
2024/02/21 05:02:56;;;;;;;;;;;;;;;22.86;33.26;101792.25;4133251;28;19926;-65
2024/02/21 05:04:58;;;;;;;;;;;;;;;22.86;33.11;101772.63;4133382;28;19926;-65
2024/02/21 05:07:00;;;;;;;;;;;;;;;22.85;32.91;101763.69;4133554;28;19930;-65
2024/02/21 05:09:02;;;;;;;;;;;;;;;22.86;33.29;101741.28;4132923;28;19930;-66
2024/02/21 05:11:03;;;;;;;;;;;;;;;22.86;32.74;101749.31;4133239;28;19926;-65
2024/02/21 05:13:05;;;;;;;;;;;;;;;22.87;32.98;101755.53;4133076;28;19930;-66
2024/02/21 05:15:07;;;;;;;;;;;;;;;22.86;33.00;101759.22;4133116;28;20359;-65
2024/02/21 05:17:08;;;;;;;;;;;;;;;22.87;33.04;101751.03;4132799;28;19925;-65
2024/02/21 05:19:10;;;;;;;;;;;;;;;22.87;33.15;101748.38;4132820;28;19930;-65
2024/02/21 05:21:12;;;;;;;;;;;;;;;22.87;32.91;101758.22;4133124;28;19933;-65
2024/02/21 05:23:14;;;;;;;;;;;;;;;22.87;32.81;101755.53;4132831;28;19997;-66
2024/02/21 05:25:15;;;;;;;;;;;;;;;22.86;33.16;101737.75;4132947;28;19957;-66
2024/02/21 05:27:17;;;;;;;;;;;;;;;22.85;33.16;101739.56;4132896;28;19961;-66
2024/02/21 05:29:19;;;;;;;;;;;;;;;22.86;33.13;101729.72;4132859;28;19926;-66
2024/02/21 05:31:23;;;;;;;;;;;;;;;22.85;33.26;101722.63;4132889;28;19926;-66
2024/02/21 05:33:25;;;;;;;;;;;;;;;22.85;32.89;101733.34;4132607;28;19933;-65
2024/02/21 05:35:27;;;;;;;;;;;;;;;22.84;33.23;101723.59;4132975;28;20462;-65
2024/02/21 05:37:29;;;;;;;;;;;;;;;22.85;33.13;101734.19;4132479;28;20355;-65
2024/02/21 05:39:31;;;;;;;;;;;;;;;22.85;32.85;101717.25;4132409;28;19975;-65
2024/02/21 05:41:33;;;;;;;;;;;;;;;22.85;33.28;101707.38;4132613;28;20009;-65
2024/02/21 05:43:34;;;;;;;;;;;;;;;22.86;32.95;101701.03;4115502;28;19927;-65
2024/02/21 05:45:36;;;;;;;;;;;;;;;22.87;32.98;101713.50;4132722;28;19926;-65
2024/02/21 05:47:39;;;;;;;;;;;;;;;22.87;33.10;101715.28;4132651;28;19926;-65
2024/02/21 05:49:41;;;;;;;;;;;;;;;22.88;33.18;101708.97;4132442;28;19955;-65
2024/02/21 05:51:43;;;;;;;;;;;;;;;22.87;33.10;101700.09;4132672;28;19972;-65
2024/02/21 05:53:45;;;;;;;;;;;;;;;22.87;33.15;101702.75;4114997;28;19965;-65
2024/02/21 05:55:46;;;;;;;;;;;;;;;22.86;33.13;101714.44;4132349;28;19932;-66
2024/02/21 05:57:48;;;;;;;;;;;;;;;22.87;33.13;101713.50;4132337;28;19926;-65
2024/02/21 05:59:50;;;;;;;;;;;;;;;22.86;33.13;101703.72;4132150;28;19930;-65
2024/02/21 06:01:56;;;;;;;;;;;;;;;22.85;33.10;101698.47;4132314;28;20021;-65
2024/02/21 06:03:57;;;;;;;;;;;;;;;22.84;33.18;101705.66;4132522;28;20379;-66
2024/02/21 06:05:59;;;;;;;;;;;;;;;22.84;32.88;101697.59;4132250;28;19932;-66
2024/02/21 06:08:00;;;;;;;;;;;;;;;22.85;33.12;101693.13;4132022;28;20348;-66
2024/02/21 06:10:02;;;;;;;;;;;;;;;22.85;33.30;101693.97;4132079;28;19926;-66
2024/02/21 06:12:04;;;;;;;;;;;;;;;22.86;32.82;101702.88;4132094;28;20016;-66
2024/02/21 06:14:06;;;;;;;;;;;;;;;22.86;33.01;101690.31;4114994;28;19992;-66
2024/02/21 06:16:08;;;;;;;;;;;;;;;22.87;32.85;101665.22;4132035;28;20411;-66
2024/02/21 06:18:09;;;;;;;;;;;;;;;22.87;32.98;101659.84;4132241;28;20302;-66
2024/02/21 06:20:11;;;;;;;;;;;;;;;22.86;32.89;101639.34;4114762;28;19961;-66
2024/02/21 06:22:15;;;;;;;;;;;;;;;22.86;32.94;101630.47;4131434;28;19933;-66
2024/02/21 06:24:17;;;;;;;;;;;;;;;22.87;32.95;101629.47;4132202;28;19976;-65
2024/02/21 06:26:18;;;;;;;;;;;;;;;22.87;33.00;101640.19;4131889;28;19936;-66
2024/02/21 06:28:20;;;;;;;;;;;;;;;22.86;32.98;101639.34;4131258;28;20033;-67
2024/02/21 06:30:22;;;;;;;;;;;;;;;22.86;33.25;101636.66;4114892;28;20332;-66
2024/02/21 06:32:23;;;;;;;;;;;;;;;22.85;33.16;101647.53;4131950;28;19926;-66
2024/02/21 06:34:25;;;;;;;;;;;;;;;22.84;33.11;101645.81;4131816;28;19932;-67
2024/02/21 06:36:28;;;;;;;;;;;;;;;22.82;33.17;101643.25;4131471;28;19925;-66
2024/02/21 06:38:30;;;;;;;;;;;;;;;22.84;33.21;101645.81;4131574;28;19976;-66
2024/02/21 06:40:38;;;;;;;;;;;;;;;22.85;33.14;101650.19;4131931;28;19926;-66
2024/02/21 06:42:39;;;;;;;;;;;;;;;22.85;33.08;101642.16;4132033;28;19932;-66
2024/02/21 06:44:41;;;;;;;;;;;;;;;22.85;33.07;101632.28;4131916;28;19926;-67
2024/02/21 06:46:42;;;;;;;;;;;;;;;22.85;32.91;101631.44;4131808;28;19930;-66
2024/02/21 06:48:44;;;;;;;;;;;;;;;22.86;33.13;101627.78;4131673;28;20307;-66
2024/02/21 06:50:48;;;;;;;;;;;;;;;22.86;33.01;101628.63;4131383;28;19932;-66
2024/02/21 06:52:50;;;;;;;;;;;;;;;22.87;33.10;101634.84;4131155;28;20021;-67
2024/02/21 06:54:52;;;;;;;;;;;;;;;22.87;33.07;101632.16;4114443;28;19953;-65
2024/02/21 06:56:53;;;;;;;;;;;;;;;22.86;32.91;101619.72;4131719;28;20342;-66
2024/02/21 06:58:55;;;;;;;;;;;;;;;22.85;32.83;101624.22;4131498;28;19930;-66
2024/02/21 07:00:56;;;;;;;;;;;;;;;22.83;32.88;101634.19;4131747;28;20011;-66
2024/02/21 07:02:58;;;;;;;;;;;;;;;22.81;32.95;101618.22;4114469;28;19926;-66
2024/02/21 07:05:00;;;;;;;;;;;;;;;22.81;32.95;101618.22;4131147;28;19972;-66
2024/02/21 07:07:02;;;;;;;;;;;;;;;22.82;33.13;101621.78;4131612;28;19968;-66
2024/02/21 07:09:03;;;;;;;;;;;;;;;22.83;33.14;101602.00;4131670;28;19933;-67
2024/02/21 07:11:05;;;;;;;;;;;;;;;22.83;33.08;101602.00;4131597;28;20024;-65
2024/02/21 07:13:07;;;;;;;;;;;;;;;22.83;33.16;101604.69;4131563;28;20229;-66
2024/02/21 07:15:08;;;;;;;;;;;;;;;22.83;32.81;101599.34;4131582;28;20288;-65
2024/02/21 07:17:10;;;;;;;;;;;;;;;22.85;33.08;101589.34;4131672;28;19930;-66
2024/02/21 07:19:12;;;;;;;;;;;;;;;22.84;33.10;101603.72;4131183;28;19930;-66
2024/02/21 07:21:15;;;;;;;;;;;;;;;22.85;32.92;101591.19;4114318;28;19930;-66
2024/02/21 07:23:17;;;;;;;;;;;;;;;22.84;32.89;101603.72;4131280;28;20005;-66
2024/02/21 07:25:18;;;;;;;;;;;;;;;22.83;33.07;101612.75;4131474;28;19973;-66
2024/02/21 07:27:20;;;;;;;;;;;;;;;22.83;33.11;101609.22;4131322;28;19957;-66
2024/02/21 07:29:22;;;;;;;;;;;;;;;22.83;33.11;101617.25;4131324;28;20359;-66
2024/02/21 07:31:23;;;;;;;;;;;;;;;22.82;33.03;101624.47;4131459;28;19933;-66
2024/02/21 07:33:25;;;;;;;;;;;;;;;22.81;33.18;101626.28;4131337;28;19930;-65
2024/02/21 07:35:26;;;;;;;;;;;;;;;22.81;33.14;101620.06;4131286;28;19925;-65
2024/02/21 07:37:28;;;;;;;;;;;;;;;22.83;32.99;101625.31;4131531;28;20389;-66
2024/02/21 07:39:36;;;;;;;;;;;;;;;22.82;33.06;101621.78;4132584;28;19929;-65
2024/02/21 07:41:38;;;;;;;;;;;;;;;22.83;33.06;101628.84;4134567;28;19932;-65
2024/02/21 07:43:40;;;;;;;;;;;;;;;22.84;33.18;101630.56;4117288;28;20440;-66
2024/02/21 07:45:42;;;;;;;;;;;;;;;22.85;33.04;101631.44;4134680;28;19926;-67
2024/02/21 07:47:43;;;;;;;;;;;;;;;22.85;32.97;101626.91;4134458;28;19973;-66
2024/02/21 07:49:45;;;;;;;;;;;;;;;22.84;32.99;101616.31;4133831;28;19933;-66
2024/02/21 07:51:47;;;;;;;;;;;;;;;22.86;32.95;101611.69;4134302;28;19961;-66
2024/02/21 07:53:49;;;;;;;;;;;;;;;22.84;32.79;101616.31;4134213;28;19926;-66
2024/02/21 07:55:50;;;;;;;;;;;;;;;22.83;33.12;101615.44;4134362;28;19965;-66
2024/02/21 07:57:52;;;;;;;;;;;;;;;22.83;33.08;101619.94;4134367;28;19925;-66
2024/02/21 07:59:54;;;;;;;;;;;;;;;22.82;33.17;101611.06;4134079;28;20300;-66
2024/02/21 08:01:58;;;;;;;;;;;;;;;22.81;32.94;101610.19;4134112;28;19936;-66
2024/02/21 08:04:00;;;;;;;;;;;;;;;22.80;33.07;101597.72;4133860;28;20370;-66
2024/02/21 08:06:02;;;;;;;;;;;;;;;22.80;32.93;101584.31;4134225;28;20407;-66
2024/02/21 08:08:04;;;;;;;;;;;;;;;22.82;33.08;101578.88;4134001;28;19929;-66
2024/02/21 08:10:09;;;;;;;;;;;;;;;22.82;32.88;101576.19;4133893;28;19926;-66
2024/02/21 08:12:11;;;;;;;;;;;;;;;22.84;33.10;101573.38;4133888;28;19925;-66
2024/02/21 08:14:15;;;;;;;;;;;;;;;22.84;33.19;101579.59;4134061;28;19926;-66
2024/02/21 08:16:21;;;;;;;;;;;;;;;22.85;33.24;101567.06;4133799;28;19956;-66
2024/02/21 08:18:23;;;;;;;;;;;;;;;22.83;33.14;101564.47;4133686;28;19961;-66
2024/02/21 08:20:25;;;;;;;;;;;;;;;22.84;32.94;101554.59;4133784;28;19930;-66
2024/02/21 08:22:27;;;;;;;;;;;;;;;22.85;33.18;101557.16;4133750;28;19925;-66
2024/02/21 08:24:28;;;;;;;;;;;;;;;22.84;33.16;101552.78;4133494;28;19925;-66
2024/02/21 08:26:30;;;;;;;;;;;;;;;22.84;32.81;101543.88;4133744;28;19926;-66
2024/02/21 08:28:32;;;;;;;;;;;;;;;22.81;32.74;101542.28;4133677;28;20299;-65
2024/02/21 08:30:34;;;;;;;;;;;;;;;22.82;33.29;101544.00;4133429;28;19926;-66
2024/02/21 08:32:36;;;;;;;;;;;;;;;22.81;33.18;101536.94;4133100;28;19930;-66
2024/02/21 08:34:38;;;;;;;;;;;;;;;22.81;33.18;101539.59;4133695;28;19988;-66
2024/02/21 08:36:39;;;;;;;;;;;;;;;22.83;33.25;101531.44;4133527;28;19976;-66
2024/02/21 08:38:41;;;;;;;;;;;;;;;22.83;33.09;101531.44;4133566;28;20375;-66
2024/02/21 08:40:43;;;;;;;;;;;;;;;22.83;33.07;101523.41;4133385;28;20306;-66
2024/02/21 08:42:44;;;;;;;;;;;;;;;22.84;33.05;101519.75;4133471;28;19930;-66
2024/02/21 08:44:46;;;;;;;;;;;;;;;22.85;33.19;101518.78;4133642;28;19972;-66
2024/02/21 08:46:47;;;;;;;;;;;;;;;22.87;32.97;101530.22;4115845;28;20388;-66
2024/02/21 08:48:49;;;;;;;;;;;;;;;22.86;33.10;101515.97;4133316;28;19926;-66
2024/02/21 08:50:56;;;;;;;;;;;;;;;22.88;33.09;101523.91;4132720;28;20025;-66
2024/02/21 08:52:57;;;;;;;;;;;;;;;22.85;33.12;101500.84;4133489;28;19932;-65
2024/02/21 08:54:59;;;;;;;;;;;;;;;22.84;33.28;101512.53;4133318;28;20284;-66
2024/02/21 08:57:01;;;;;;;;;;;;;;;22.85;33.01;101510.72;4133371;28;19925;-66
2024/02/21 08:59:03;;;;;;;;;;;;;;;22.83;32.86;101502.78;4133130;28;19933;-66
2024/02/21 09:01:10;;;;;;;;;;;;;;;22.82;33.15;101501.09;4132740;28;19957;-66
2024/02/21 09:03:17;;;;;;;;;;;;;;;22.81;32.99;101496.69;4117409;28;20056;-67
2024/02/21 09:05:19;;;;;;;;;;;;;;;22.82;33.17;101498.41;4112786;28;19926;-67
2024/02/21 09:07:21;;;;;;;;;;;;;;;22.83;33.18;101491.22;4116965;28;19973;-67
2024/02/21 09:09:23;;;;;;;;;;;;;;;22.85;33.16;101487.44;4115409;28;19948;-67
2024/02/21 09:11:27;;;;;;;;;;;;;;;22.87;32.87;101476.59;4124457;28;20004;-66
2024/02/21 09:13:30;;;;;;;;;;;;;;;22.87;32.98;101471.22;4111204;28;19926;-66
2024/02/21 09:15:32;;;;;;;;;;;;;;;22.86;32.74;101470.38;4113563;28;20020;-67
2024/02/21 09:17:35;;;;;;;;;;;;;;;22.86;32.74;101466.84;4112087;28;19930;-69
2024/02/21 09:19:37;;;;;;;;;;;;;;;22.86;32.91;101464.16;4111024;28;20442;-62
2024/02/21 09:21:39;;;;;;;;;;;;;;;22.72;33.24;101431.19;4129782;28;19932;-64
2024/02/21 09:23:41;;;;;;;;;;;;;;;22.86;33.48;101448.91;4120771;28;19973;-67
2024/02/21 09:25:42;;;;;;;;;;;;;;;22.86;33.69;101448.91;4132652;28;20595;-65
2024/02/21 09:27:44;;;;;;;;;;;;;;;22.85;33.68;101436.47;4132636;28;19926;-64
2024/02/21 09:29:46;;;;;;;;;;;;;;;22.82;33.40;101417.94;4116311;28;19934;-66
2024/02/21 09:31:48;;;;;;;;;;;;;;;22.80;33.40;101418.06;4118662;28;19926;-65
2024/02/21 09:33:49;;;;;;;;;;;;;;;22.80;33.53;101417.22;4114847;28;19926;-64
2024/02/21 09:35:51;;;;;;;;;;;;;;;22.76;33.82;101421.06;4121759;28;20374;-66
2024/02/21 09:37:53;;;;;;;;;;;;;;;22.72;33.73;101419.63;4125466;28;20024;-67
2024/02/21 09:39:55;;;;;;;;;;;;;;;22.67;33.60;101422.63;4123811;28;19934;-67
2024/02/21 09:41:59;;;;;;;;;;;;;;;22.67;33.67;101417.28;4122826;28;19968;-64
2024/02/21 09:44:00;;;;;;;;;;;;;;;22.70;33.37;101418.88;4114241;28;20005;-64
2024/02/21 09:46:02;;;;;;;;;;;;;;;22.69;33.62;101422.53;4110469;28;19927;-63
2024/02/21 09:48:14;;;;;;;;;;;;;;;22.70;33.55;101402.78;4129979;28;19926;-63
2024/02/21 09:50:17;;;;;;;;;;;;;;;22.72;33.40;101409.72;4114991;28;19926;-62
2024/02/21 09:52:20;;;;;;;;;;;;;;;22.76;32.92;101402.31;4115417;28;19927;-63
2024/02/21 09:54:21;;;;;;;;;;;;;;;22.78;33.24;101411.97;4116087;28;19930;-63
2024/02/21 09:56:23;;;;;;;;;;;;;;;22.79;33.08;101405.59;4116228;28;20383;-66
2024/02/21 09:58:27;;;;;;;;;;;;;;;22.83;33.08;101394.66;4116034;28;19930;-66
2024/02/21 10:00:29;;;;;;;;;;;;;;;22.85;33.10;101398.94;4115268;28;19927;-67
2024/02/21 10:02:30;;;;;;;;;;;;;;;22.86;32.52;101391.75;4114374;28;20227;-66
2024/02/21 10:04:32;;;;;;;;;;;;;;;22.86;32.70;101397.13;4108424;28;19937;-65
2024/02/21 10:06:36;;;;;;;;;;;;;;;22.73;32.62;101371.22;4132240;28;19981;-66
2024/02/21 10:08:38;;;;;;;;;;;;;;;22.87;32.75;101388.94;4132237;28;19981;-66
2024/02/21 10:10:43;;;;;;;;;;;;;;;22.88;32.37;101377.25;4122834;28;19942;-66
2024/02/21 10:12:51;;;;;;;;;;;;;;;22.89;32.42;101365.56;4111303;28;20162;-67
2024/02/21 10:15:01;;;;;;;;;;;;;;;22.89;32.16;101365.56;4129894;28;19926;-65
2024/02/21 10:17:04;;;;;;;;;;;;;;;22.90;32.40;101361.88;4115515;28;20406;-65
2024/02/21 10:19:06;;;;;;;;;;;;;;;22.92;32.43;101364.47;4115430;28;19963;-66
2024/02/21 10:21:08;;;;;;;;;;;;;;;22.94;32.35;101375.91;4115273;28;19937;-65
2024/02/21 10:23:10;;;;;;;;;;;;;;;22.93;32.28;101363.44;4118933;28;19933;-65
2024/02/21 10:25:12;;;;;;;;;;;;;;;22.95;32.23;101366.88;4118270;28;19976;-66
2024/02/21 10:27:14;;;;;;;;;;;;;;;22.94;32.40;101349.06;4131488;28;19925;-65